Time;durP1;ratioP1;P1;durP2;ratioP2;P2;SDS_P1;SDS_P2;PMS_P1;PMS_P2;Temp;Humidity;BMP_temperature;BMP_pressure;BME280_temperature;BME280_humidity;BME280_pressure;Samples;Min_cycle;Max_cycle;Signal;HPM_P1;HPM_P2
2021/06/26 00:02:04;;;;;;;14.67;13.47;;;20.10;91.00;;;;;;5028491;28;20658;-48
2021/06/26 00:04:31;;;;;;;15.50;14.13;;;20.10;91.10;;;;;;5010998;28;20631;-47
2021/06/26 00:06:58;;;;;;;14.37;13.27;;;20.10;91.20;;;;;;5027840;28;20655;-49
2021/06/26 00:09:27;;;;;;;17.10;15.50;;;20.10;91.20;;;;;;5028533;28;20662;-48
2021/06/26 00:11:54;;;;;;;16.90;15.23;;;20.10;91.30;;;;;;5028203;28;20635;-48
2021/06/26 00:14:21;;;;;;;15.80;14.43;;;20.10;91.30;;;;;;5028261;28;20662;-48
2021/06/26 00:16:48;;;;;;;15.27;13.93;;;20.10;91.30;;;;;;5028266;28;20805;-49
2021/06/26 00:19:16;;;;;;;15.30;13.80;;;20.10;91.30;;;;;;5028141;28;20694;-49
2021/06/26 00:21:43;;;;;;;16.47;15.17;;;20.00;91.40;;;;;;5028445;28;20655;-49
2021/06/26 00:24:10;;;;;;;15.73;14.33;;;20.00;91.50;;;;;;5027711;28;20655;-48
2021/06/26 00:26:39;;;;;;;15.53;14.23;;;20.10;91.50;;;;;;5030240;28;21168;-47
2021/06/26 00:29:06;;;;;;;13.93;12.70;;;20.10;91.50;;;;;;5031528;28;21184;-49
2021/06/26 00:31:33;;;;;;;15.03;13.73;;;20.10;91.50;;;;;;5031951;28;20658;-48
2021/06/26 00:34:01;;;;;;;14.50;13.00;;;20.20;91.40;;;;;;5031950;28;20654;-48
2021/06/26 00:36:28;;;;;;;16.20;14.73;;;20.20;91.20;;;;;;5013603;28;20708;-48
2021/06/26 00:38:55;;;;;;;13.53;12.43;;;20.20;91.30;;;;;;5031445;28;20690;-47
2021/06/26 00:41:22;;;;;;;16.80;15.00;;;20.10;91.30;;;;;;5031469;28;21262;-48
2021/06/26 00:43:51;;;;;;;15.47;14.20;;;20.10;91.40;;;;;;5031107;28;20658;-48
2021/06/26 00:46:18;;;;;;;14.93;13.53;;;20.10;91.40;;;;;;5031528;28;20661;-48
2021/06/26 00:48:45;;;;;;;14.10;13.00;;;20.00;91.50;;;;;;5031751;28;20694;-48
2021/06/26 00:51:12;;;;;;;14.83;13.60;;;20.00;91.50;;;;;;5031716;28;20676;-47
2021/06/26 00:53:39;;;;;;;18.03;13.90;;;20.00;91.60;;;;;;5031715;28;20658;-49
2021/06/26 00:56:08;;;;;;;15.77;14.23;;;20.00;91.60;;;;;;5031179;28;20627;-49
2021/06/26 00:58:35;;;;;;;14.60;13.40;;;19.90;91.70;;;;;;5031257;28;20751;-49
2021/06/26 01:01:04;;;;;;;14.10;13.00;;;20.00;91.70;;;;;;5031479;28;20694;-48
2021/06/26 01:03:32;;;;;;;13.57;12.37;;;19.90;91.70;;;;;;5031276;28;20766;-49
2021/06/26 01:05:59;;;;;;;15.30;13.90;;;19.90;91.80;;;;;;5031575;28;20674;-49
2021/06/26 01:08:26;;;;;;;14.80;13.40;;;19.90;91.90;;;;;;5061261;22;20705;-55
2021/06/26 01:10:53;;;;;;;14.07;12.97;;;19.90;91.90;;;;;;5052242;28;20691;-59
2021/06/26 01:13:20;;;;;;;14.70;13.50;;;19.90;92.00;;;;;;5053275;28;20654;-59
2021/06/26 01:15:51;;;;;;;15.40;14.30;;;19.90;92.00;;;;;;5052563;28;21045;-57
2021/06/26 01:18:20;;;;;;;14.53;13.33;;;20.00;91.80;;;;;;5055076;28;20704;-55
2021/06/26 01:20:47;;;;;;;14.00;12.60;;;20.00;91.80;;;;;;5052939;28;20685;-56
2021/06/26 01:23:15;;;;;;;14.03;12.93;;;19.90;91.80;;;;;;5053003;28;20670;-57
2021/06/26 01:25:43;;;;;;;15.63;14.30;;;19.90;91.80;;;;;;5052379;28;20982;-57
2021/06/26 01:28:12;;;;;;;14.57;13.37;;;19.80;91.80;;;;;;5043721;28;20654;-56
2021/06/26 01:30:39;;;;;;;14.40;13.20;;;19.90;92.00;;;;;;5052018;28;20654;-57
2021/06/26 01:33:08;;;;;;;13.23;12.03;;;19.90;92.10;;;;;;5053286;28;20594;-55
2021/06/26 01:35:35;;;;;;;14.40;13.30;;;19.80;92.30;;;;;;5053102;28;21186;-55
2021/06/26 01:38:03;;;;;;;14.57;13.27;;;19.80;92.00;;;;;;5069890;28;21041;-57
2021/06/26 01:40:32;;;;;;;14.67;13.47;;;19.80;92.10;;;;;;5058604;28;20672;-59
2021/06/26 01:42:59;;;;;;;15.00;13.60;;;19.70;92.10;;;;;;5052439;28;20662;-56
2021/06/26 01:45:26;;;;;;;14.43;13.13;;;19.70;92.20;;;;;;5052434;28;20688;-57
2021/06/26 01:47:55;;;;;;;14.40;13.20;;;19.70;92.40;;;;;;5068003;28;20681;-57
2021/06/26 01:50:24;;;;;;;14.47;13.27;;;19.60;92.40;;;;;;5069709;28;20645;-57
2021/06/26 01:52:51;;;;;;;14.33;13.00;;;19.60;92.60;;;;;;5052616;28;20625;-58
2021/06/26 01:55:19;;;;;;;15.83;14.50;;;19.60;92.80;;;;;;5051805;28;20622;-56
2021/06/26 01:57:48;;;;;;;16.13;14.73;;;19.50;93.00;;;;;;5066819;28;21236;-57
2021/06/26 02:00:17;;;;;;;17.07;15.67;;;19.50;93.30;;;;;;5070340;28;20692;-57
2021/06/26 02:02:44;;;;;;;18.67;17.07;;;19.40;93.40;;;;;;5055891;28;20662;-56
2021/06/26 02:05:12;;;;;;;17.97;16.27;;;19.40;93.90;;;;;;5052206;28;20622;-57
2021/06/26 02:07:39;;;;;;;17.27;15.67;;;19.30;93.60;;;;;;5045417;28;20702;-57
2021/06/26 02:10:07;;;;;;;17.80;16.13;;;19.30;93.70;;;;;;5051787;28;20634;-57
2021/06/26 02:12:34;;;;;;;17.53;15.90;;;19.30;93.80;;;;;;5052367;28;20661;-57
2021/06/26 02:15:03;;;;;;;16.53;14.83;;;19.20;93.90;;;;;;5052542;28;20650;-57
2021/06/26 02:17:30;;;;;;;17.17;15.67;;;19.20;94.10;;;;;;5052322;28;21059;-57
2021/06/26 02:19:58;;;;;;;18.43;16.70;;;19.20;94.20;;;;;;5051754;28;20686;-56
2021/06/26 02:22:25;;;;;;;17.33;15.73;;;19.10;94.20;;;;;;5051733;28;21217;-55
2021/06/26 02:24:52;;;;;;;19.10;17.07;;;19.00;94.30;;;;;;5055129;28;20625;-56
2021/06/26 02:27:19;;;;;;;17.53;16.03;;;19.00;94.40;;;;;;5071614;28;20672;-57
2021/06/26 02:29:47;;;;;;;18.17;16.60;;;19.00;94.40;;;;;;5062950;28;20630;-55
2021/06/26 02:32:15;;;;;;;18.00;16.40;;;19.00;94.50;;;;;;5051914;28;20653;-55
2021/06/26 02:34:43;;;;;;;19.07;17.53;;;18.90;94.50;;;;;;5053923;28;20665;-55
2021/06/26 02:37:10;;;;;;;16.40;15.10;;;18.90;94.70;;;;;;5067438;28;20689;-57
2021/06/26 02:39:37;;;;;;;17.50;16.00;;;18.80;94.70;;;;;;5051696;28;21182;-55
2021/06/26 02:42:05;;;;;;;17.47;16.07;;;18.80;94.80;;;;;;5052083;28;20673;-56
2021/06/26 02:44:32;;;;;;;17.57;16.07;;;18.80;94.80;;;;;;5051495;28;20618;-57
2021/06/26 02:46:59;;;;;;;17.83;16.00;;;18.80;94.90;;;;;;5051120;28;21291;-57
2021/06/26 02:49:28;;;;;;;18.03;16.57;;;18.70;94.90;;;;;;5050051;28;21002;-57
2021/06/26 02:51:56;;;;;;;17.53;16.03;;;18.70;95.00;;;;;;5054028;28;20665;-57
2021/06/26 02:54:23;;;;;;;18.40;16.90;;;18.70;95.00;;;;;;5071410;28;20642;-57
2021/06/26 02:56:50;;;;;;;17.80;16.10;;;18.70;95.00;;;;;;5071361;28;20992;-56
2021/06/26 02:59:17;;;;;;;18.90;16.90;;;18.70;95.10;;;;;;5051357;28;20667;-57
2021/06/26 03:01:44;;;;;;;18.30;16.53;;;18.70;95.10;;;;;;5051830;28;20689;-57
2021/06/26 03:04:12;;;;;;;18.80;17.07;;;18.70;95.20;;;;;;5071528;28;20663;-57
2021/06/26 03:06:40;;;;;;;19.00;17.40;;;18.60;95.10;;;;;;5059616;28;20654;-57
2021/06/26 03:09:07;;;;;;;18.40;16.80;;;18.60;95.10;;;;;;5051287;28;20656;-57
2021/06/26 03:11:34;;;;;;;16.70;15.20;;;18.60;95.10;;;;;;5055119;28;20645;-56
2021/06/26 03:14:02;;;;;;;16.87;15.43;;;18.50;95.10;;;;;;5069645;28;21031;-57
2021/06/26 03:16:29;;;;;;;16.87;15.37;;;18.50;95.20;;;;;;5050871;28;20650;-56
2021/06/26 03:18:56;;;;;;;18.53;16.83;;;18.50;95.30;;;;;;5050877;28;20677;-58
2021/06/26 03:21:23;;;;;;;18.90;17.20;;;18.50;95.30;;;;;;5050565;28;20677;-58
2021/06/26 03:23:52;;;;;;;21.17;19.03;;;18.50;95.30;;;;;;5061906;28;20872;-57
2021/06/26 03:26:19;;;;;;;21.20;16.67;;;18.50;95.30;;;;;;5050419;28;20653;-56
2021/06/26 03:28:46;;;;;;;18.77;16.70;;;18.40;95.20;;;;;;5045860;28;21029;-57
2021/06/26 03:31:13;;;;;;;19.00;17.40;;;18.40;95.20;;;;;;5051110;28;20669;-57
2021/06/26 03:33:41;;;;;;;16.10;14.60;;;18.40;95.30;;;;;;5067401;28;21161;-58
2021/06/26 03:36:09;;;;;;;17.33;15.93;;;18.30;95.30;;;;;;5070895;28;21035;-56
2021/06/26 03:38:36;;;;;;;17.53;16.03;;;18.30;95.50;;;;;;5070720;28;20648;-57
2021/06/26 03:41:04;;;;;;;14.60;13.40;;;18.30;95.40;;;;;;5052328;28;21035;-55
2021/06/26 03:43:32;;;;;;;15.17;13.77;;;18.30;95.30;;;;;;5065441;28;20657;-55
2021/06/26 03:45:59;;;;;;;13.77;12.60;;;18.30;95.20;;;;;;5070796;28;20660;-56
2021/06/26 03:48:26;;;;;;;15.77;14.17;;;18.20;95.00;;;;;;5056081;28;20654;-56
2021/06/26 03:50:55;;;;;;;15.30;13.73;;;18.10;95.20;;;;;;5050700;28;20618;-55
2021/06/26 03:53:22;;;;;;;16.97;15.30;;;18.10;95.20;;;;;;5063550;28;21197;-56
2021/06/26 03:55:52;;;;;;;18.60;16.83;;;18.10;95.20;;;;;;5070445;28;20661;-56
2021/06/26 03:58:22;;;;;;;18.87;17.00;;;18.10;95.20;;;;;;5054954;28;20685;-57
2021/06/26 04:00:49;;;;;;;20.43;18.53;;;18.10;95.20;;;;;;5051301;28;20693;-57
2021/06/26 04:03:16;;;;;;;21.47;19.50;;;18.00;95.10;;;;;;5066760;28;20980;-57
2021/06/26 04:05:44;;;;;;;20.60;18.70;;;18.00;95.20;;;;;;5074502;28;20653;-57
2021/06/26 04:08:11;;;;;;;20.00;18.30;;;18.00;95.10;;;;;;5073997;28;20684;-57
2021/06/26 04:10:38;;;;;;;18.33;16.63;;;18.00;95.10;;;;;;5056703;28;20627;-56
2021/06/26 04:13:05;;;;;;;18.13;16.53;;;18.00;95.20;;;;;;5064974;28;20664;-57
2021/06/26 04:15:34;;;;;;;17.23;15.63;;;18.00;95.20;;;;;;5063957;28;20905;-57
2021/06/26 04:18:01;;;;;;;17.10;15.40;;;18.00;95.30;;;;;;5059259;28;20653;-57
2021/06/26 04:20:29;;;;;;;17.50;15.80;;;17.90;95.20;;;;;;5053657;28;20654;-57
2021/06/26 04:22:56;;;;;;;15.93;14.63;;;17.90;95.30;;;;;;5060513;28;20649;-57
2021/06/26 04:25:24;;;;;;;16.47;14.73;;;17.90;95.40;;;;;;5060709;28;20957;-57
2021/06/26 04:27:55;;;;;;;17.10;15.40;;;17.90;95.40;;;;;;5054137;28;21044;-57
2021/06/26 04:30:22;;;;;;;15.57;14.17;;;17.90;95.40;;;;;;5053573;28;20642;-56
2021/06/26 04:32:51;;;;;;;17.00;14.17;;;18.00;95.40;;;;;;5062078;28;20657;-56
2021/06/26 04:35:20;;;;;;;15.70;14.20;;;18.00;95.40;;;;;;5074007;28;21258;-56
2021/06/26 04:37:48;;;;;;;16.50;14.93;;;18.00;95.50;;;;;;5071598;28;21015;-56
2021/06/26 04:40:16;;;;;;;15.43;13.90;;;18.00;95.50;;;;;;5053073;28;21201;-56
2021/06/26 04:42:44;;;;;;;15.97;14.57;;;18.10;95.50;;;;;;5060976;28;20637;-56
2021/06/26 04:45:13;;;;;;;16.40;14.90;;;18.10;95.40;;;;;;5050882;28;21182;-55
2021/06/26 04:47:41;;;;;;;17.07;15.43;;;18.20;95.40;;;;;;5052763;28;20689;-55
2021/06/26 04:50:10;;;;;;;15.93;14.57;;;18.20;95.30;;;;;;5053442;28;20626;-56
2021/06/26 04:52:39;;;;;;;16.73;15.03;;;18.20;95.30;;;;;;5059806;28;20617;-56
2021/06/26 04:55:07;;;;;;;15.03;13.70;;;18.20;95.30;;;;;;5074581;28;20641;-56
2021/06/26 04:57:35;;;;;;;17.73;16.07;;;18.20;95.30;;;;;;5056396;28;21119;-56
2021/06/26 05:00:02;;;;;;;18.90;17.33;;;18.30;95.40;;;;;;5056229;28;20665;-56
2021/06/26 05:02:29;;;;;;;17.70;16.00;;;18.30;95.40;;;;;;5057407;28;20680;-58
2021/06/26 05:04:56;;;;;;;17.20;15.23;;;18.30;95.40;;;;;;5073515;28;20649;-57
2021/06/26 05:07:25;;;;;;;19.77;17.97;;;18.30;95.40;;;;;;5073429;28;20691;-56
2021/06/26 05:09:52;;;;;;;17.87;16.27;;;18.30;95.50;;;;;;5064755;28;20629;-54
2021/06/26 05:12:19;;;;;;;19.30;17.47;;;18.30;95.60;;;;;;5052729;28;21270;-55
2021/06/26 05:14:46;;;;;;;20.23;18.33;;;18.30;95.60;;;;;;5036285;28;20725;-55
2021/06/26 05:17:14;;;;;;;20.07;18.33;;;18.40;95.70;;;;;;5053935;28;21274;-58
2021/06/26 05:19:41;;;;;;;20.73;19.00;;;18.40;95.70;;;;;;5040365;28;20645;-57
2021/06/26 05:22:08;;;;;;;21.83;19.50;;;18.50;95.80;;;;;;5054133;28;20684;-58
2021/06/26 05:24:37;;;;;;;22.20;20.10;;;18.60;95.70;;;;;;5073612;28;20659;-56
2021/06/26 05:27:05;;;;;;;20.40;18.70;;;18.60;95.60;;;;;;5073332;28;21225;-58
2021/06/26 05:29:33;;;;;;;22.20;20.33;;;18.70;95.60;;;;;;5055557;28;20645;-58
2021/06/26 05:32:00;;;;;;;21.03;19.07;;;18.80;95.60;;;;;;5053071;28;20653;-57
2021/06/26 05:34:27;;;;;;;19.70;17.90;;;19.00;95.50;;;;;;5050773;28;20658;-58
2021/06/26 05:36:54;;;;;;;20.07;18.20;;;19.10;95.30;;;;;;5052058;28;20662;-57
2021/06/26 05:39:21;;;;;;;20.47;18.57;;;19.20;95.20;;;;;;5052627;28;20657;-56
2021/06/26 05:41:50;;;;;;;21.50;19.70;;;19.20;95.00;;;;;;5052248;28;20686;-58
2021/06/26 05:44:18;;;;;;;24.93;22.70;;;19.30;95.00;;;;;;5070996;28;20653;-57
2021/06/26 05:46:45;;;;;;;22.43;20.33;;;19.30;94.90;;;;;;5072033;28;21043;-58
2021/06/26 05:49:12;;;;;;;22.23;20.23;;;19.30;94.80;;;;;;5072465;28;20657;-58
2021/06/26 05:51:39;;;;;;;23.57;21.30;;;19.40;94.90;;;;;;5043294;28;20637;-57
2021/06/26 05:54:07;;;;;;;23.77;21.73;;;19.40;94.80;;;;;;5052833;28;20657;-58
2021/06/26 05:56:34;;;;;;;23.30;21.40;;;19.50;94.60;;;;;;5052387;28;20634;-57
2021/06/26 05:59:02;;;;;;;21.33;19.47;;;19.60;94.50;;;;;;5051724;28;20657;-57
2021/06/26 06:01:31;;;;;;;22.60;20.50;;;20.10;93.60;;;;;;5052622;28;20760;-58
2021/06/26 06:03:58;;;;;;;21.67;19.53;;;20.30;93.10;;;;;;5052637;28;21022;-58
2021/06/26 06:06:25;;;;;;;22.00;20.10;;;20.60;92.60;;;;;;5052212;28;20670;-58
2021/06/26 06:08:52;;;;;;;21.87;19.57;;;20.60;92.50;;;;;;5051278;28;21049;-58
2021/06/26 06:11:19;;;;;;;20.40;18.57;;;20.50;92.20;;;;;;5061624;28;20681;-57
2021/06/26 06:13:47;;;;;;;18.47;16.87;;;20.30;92.20;;;;;;5064848;28;20654;-56
2021/06/26 06:16:17;;;;;;;18.13;16.33;;;20.10;92.40;;;;;;5052013;28;20633;-58
2021/06/26 06:18:44;;;;;;;17.20;15.60;;;20.10;92.90;;;;;;5052217;28;20678;-57
2021/06/26 06:21:12;;;;;;;19.30;17.07;;;20.30;92.60;;;;;;5050351;28;20665;-56
2021/06/26 06:23:39;;;;;;;20.00;18.30;;;20.50;92.20;;;;;;5069082;28;20680;-59
2021/06/26 06:26:06;;;;;;;17.87;16.27;;;20.40;91.90;;;;;;5056668;28;20672;-58
2021/06/26 06:28:33;;;;;;;17.90;16.40;;;20.20;92.20;;;;;;5051696;28;20685;-57
2021/06/26 06:31:01;;;;;;;17.30;15.90;;;20.50;92.30;;;;;;5052037;28;20987;-57
2021/06/26 06:33:30;;;;;;;17.17;15.57;;;20.50;92.00;;;;;;5052784;28;20703;-59
2021/06/26 06:35:57;;;;;;;17.23;15.83;;;20.70;91.80;;;;;;5051952;28;20645;-58
2021/06/26 06:38:24;;;;;;;18.50;16.80;;;20.80;91.60;;;;;;5051587;28;20690;-57
2021/06/26 06:40:52;;;;;;;18.20;16.50;;;21.20;91.00;;;;;;5051294;28;20684;-58
2021/06/26 06:43:19;;;;;;;21.60;19.80;;;21.50;90.40;;;;;;5065591;28;20692;-58
2021/06/26 06:45:46;;;;;;;20.23;18.23;;;21.40;90.30;;;;;;5061293;28;20646;-58
2021/06/26 06:48:13;;;;;;;18.93;17.00;;;21.20;90.40;;;;;;5051175;28;20654;-58
2021/06/26 06:50:42;;;;;;;22.33;20.13;;;21.10;90.60;;;;;;5051025;28;20622;-57
2021/06/26 06:53:09;;;;;;;20.67;18.97;;;21.10;90.60;;;;;;5063860;28;21034;-59
2021/06/26 06:55:36;;;;;;;17.90;16.07;;;21.00;90.70;;;;;;5071734;28;20633;-58
2021/06/26 06:58:03;;;;;;;18.17;16.37;;;21.00;90.80;;;;;;5071525;28;20722;-59
2021/06/26 07:00:31;;;;;;;17.77;16.10;;;21.50;90.20;;;;;;5071204;28;20680;-58
2021/06/26 07:02:58;;;;;;;19.73;17.87;;;22.10;88.20;;;;;;5060295;28;20785;-56
2021/06/26 07:05:25;;;;;;;18.37;16.70;;;22.30;86.60;;;;;;5050924;28;20634;-57
2021/06/26 07:07:54;;;;;;;18.33;16.73;;;22.20;86.70;;;;;;5047547;28;20658;-57
2021/06/26 07:10:21;;;;;;;15.40;14.17;;;22.30;86.10;;;;;;5051376;28;21019;-56
2021/06/26 07:12:48;;;;;;;19.43;17.73;;;22.30;86.00;;;;;;5055631;28;20630;-57
2021/06/26 07:15:16;;;;;;;19.67;17.87;;;22.30;86.50;;;;;;5050846;28;20653;-57
2021/06/26 07:17:43;;;;;;;17.67;16.07;;;22.10;86.60;;;;;;5051051;28;20682;-56
2021/06/26 07:20:11;;;;;;;22.10;17.90;;;21.90;87.10;;;;;;5050408;28;21074;-56
2021/06/26 07:22:39;;;;;;;18.87;17.10;;;21.70;87.70;;;;;;5061570;28;20681;-56
2021/06/26 07:25:08;;;;;;;17.37;15.57;;;21.60;88.40;;;;;;5066008;28;20623;-56
2021/06/26 07:27:35;;;;;;;16.03;14.43;;;21.50;88.90;;;;;;5050739;28;20689;-56
2021/06/26 07:30:03;;;;;;;16.13;14.83;;;21.90;87.60;;;;;;5050176;28;20665;-56
2021/06/26 07:32:30;;;;;;;14.93;13.63;;;22.10;87.60;;;;;;5070601;28;20625;-57
2021/06/26 07:34:57;;;;;;;21.00;13.90;;;22.10;87.80;;;;;;5071255;28;20652;-55
2021/06/26 07:37:24;;;;;;;13.63;12.43;;;22.10;87.40;;;;;;5074497;28;20696;-57
2021/06/26 07:39:52;;;;;;;12.57;11.47;;;22.10;87.10;;;;;;5048435;28;20687;-56
2021/06/26 07:42:20;;;;;;;11.30;10.23;;;22.20;86.60;;;;;;5062887;28;20685;-56
2021/06/26 07:44:48;;;;;;;10.87;9.97;;;22.50;85.40;;;;;;5074847;28;20660;-56
2021/06/26 07:47:15;;;;;;;11.00;9.87;;;22.60;83.50;;;;;;5051861;28;20768;-57
2021/06/26 07:49:42;;;;;;;12.57;10.07;;;22.60;82.90;;;;;;5054818;28;20630;-57
2021/06/26 07:52:09;;;;;;;9.27;8.53;;;22.70;82.60;;;;;;5060626;28;20672;-56
2021/06/26 07:54:37;;;;;;;10.37;9.50;;;23.00;82.70;;;;;;5065591;28;20665;-57
2021/06/26 07:57:05;;;;;;;9.57;8.77;;;23.30;81.00;;;;;;5054250;28;20657;-60
2021/06/26 07:59:33;;;;;;;9.77;8.60;;;23.40;80.10;;;;;;5039969;28;20626;-59
2021/06/26 08:02:01;;;;;;;9.77;8.97;;;23.60;79.00;;;;;;5058361;28;20617;-58
2021/06/26 08:04:28;;;;;;;10.43;9.40;;;23.60;77.30;;;;;;5051834;28;20653;-59
2021/06/26 08:06:56;;;;;;;7.93;7.10;;;23.60;76.30;;;;;;5053315;28;20675;-57
2021/06/26 08:09:23;;;;;;;7.70;7.00;;;23.80;76.80;;;;;;5052696;28;20709;-57
2021/06/26 08:11:50;;;;;;;7.87;7.13;;;23.80;75.20;;;;;;5037837;28;20725;-57
2021/06/26 08:14:18;;;;;;;6.80;6.20;;;23.90;73.90;;;;;;5051841;28;20664;-57
2021/06/26 08:16:47;;;;;;;5.70;5.30;;;23.90;71.30;;;;;;5052468;28;20656;-56
2021/06/26 08:19:14;;;;;;;6.70;6.10;;;24.00;70.10;;;;;;5052528;28;20657;-56
2021/06/26 08:21:41;;;;;;;7.50;5.83;;;24.10;69.80;;;;;;5052994;28;20673;-57
2021/06/26 08:24:09;;;;;;;6.27;5.43;;;24.20;70.90;;;;;;5057500;28;20707;-57
2021/06/26 08:26:36;;;;;;;5.90;5.50;;;24.30;70.80;;;;;;5053609;28;20666;-57
2021/06/26 08:29:04;;;;;;;5.37;4.90;;;24.40;71.00;;;;;;5052092;28;20657;-57
2021/06/26 08:31:31;;;;;;;5.43;5.03;;;24.40;68.10;;;;;;5054439;28;20662;-58
2021/06/26 08:33:59;;;;;;;8.77;5.13;;;24.50;69.70;;;;;;5055164;28;20679;-57
2021/06/26 08:36:27;;;;;;;6.80;6.20;;;24.40;69.30;;;;;;5054609;28;20659;-57
2021/06/26 08:38:54;;;;;;;19.03;7.10;;;24.40;69.60;;;;;;5053633;28;20685;-56
2021/06/26 08:41:21;;;;;;;8.03;7.30;;;24.30;67.90;;;;;;5054123;28;20622;-57
2021/06/26 08:43:49;;;;;;;6.13;5.63;;;24.30;69.90;;;;;;5054180;28;20701;-57
2021/06/26 08:46:16;;;;;;;6.03;5.50;;;24.30;70.30;;;;;;5055185;28;20669;-57
2021/06/26 08:48:43;;;;;;;7.33;6.73;;;24.30;69.80;;;;;;5071138;28;20691;-57
2021/06/26 08:51:12;;;;;;;7.23;6.53;;;24.30;68.30;;;;;;5051729;28;20686;-57
2021/06/26 08:53:39;;;;;;;8.70;6.17;;;24.30;67.60;;;;;;5052385;28;20638;-57
2021/06/26 08:56:06;;;;;;;7.50;6.77;;;24.30;68.70;;;;;;5050287;28;20665;-59
2021/06/26 08:58:33;;;;;;;6.50;6.00;;;24.30;67.90;;;;;;5052729;28;20692;-55
2021/06/26 09:01:00;;;;;;;8.10;7.30;;;24.30;67.30;;;;;;5053171;28;20646;-56
2021/06/26 09:03:28;;;;;;;6.40;5.77;;;24.30;67.30;;;;;;5034737;28;20988;-56
2021/06/26 09:06:02;;;;;;;7.70;6.97;;;24.40;66.70;;;;;;5053091;28;20657;-55
2021/06/26 09:08:31;;;;;;;6.37;5.77;;;24.30;66.50;;;;;;5052841;28;20684;-55
2021/06/26 09:10:58;;;;;;;6.77;6.27;;;24.30;66.50;;;;;;5053203;28;21553;-55
2021/06/26 09:13:27;;;;;;;5.80;5.30;;;24.30;66.20;;;;;;5053006;28;20658;-56
2021/06/26 09:16:04;;;;;;;7.23;6.63;;;24.40;67.10;;;;;;5052374;28;21256;-58
2021/06/26 09:18:39;;;;;;;6.33;5.73;;;24.40;66.40;;;;;;5052958;28;20737;-57
2021/06/26 09:21:16;;;;;;;7.90;7.20;;;24.60;67.10;;;;;;5052401;28;20653;-58
2021/06/26 09:23:45;;;;;;;6.63;6.03;;;24.80;65.90;;;;;;5052372;28;20712;-58
2021/06/26 09:26:12;;;;;;;6.03;5.50;;;25.10;63.60;;;;;;5052756;28;20693;-56
2021/06/26 09:28:40;;;;;;;5.33;4.97;;;25.50;63.90;;;;;;5058700;28;20685;-58
2021/06/26 09:31:15;;;;;;;5.40;4.90;;;25.70;58.70;;;;;;5056734;28;21190;-55
2021/06/26 09:33:42;;;;;;;4.80;4.40;;;25.80;57.90;;;;;;5053177;28;20642;-59
2021/06/26 09:36:10;;;;;;;6.43;5.33;;;26.00;56.50;;;;;;5072904;28;20647;-57
2021/06/26 09:38:38;;;;;;;6.10;5.50;;;26.10;57.80;;;;;;5072218;28;20691;-56
2021/06/26 09:41:16;;;;;;;6.43;5.83;;;26.00;55.70;;;;;;5053208;28;20646;-56
2021/06/26 09:43:44;;;;;;;7.30;6.23;;;25.80;56.50;;;;;;5052789;28;20693;-58
2021/06/26 09:46:12;;;;;;;5.47;5.07;;;25.60;56.40;;;;;;5062419;28;20657;-59
2021/06/26 09:48:52;;;;;;;5.33;4.83;;;25.50;56.70;;;;;;5052406;28;20658;-58
2021/06/26 09:51:24;;;;;;;5.00;4.53;;;25.40;57.20;;;;;;5052751;28;20653;-59
2021/06/26 09:53:53;;;;;;;6.83;6.23;;;25.30;59.10;;;;;;5053991;28;20663;-58
2021/06/26 09:56:22;;;;;;;5.93;5.43;;;25.20;57.00;;;;;;5057751;28;20646;-58
2021/06/26 09:58:53;;;;;;;4.93;4.60;;;25.10;58.80;;;;;;5051633;28;20684;-57
2021/06/26 10:01:20;;;;;;;7.10;4.93;;;25.10;59.00;;;;;;5015267;28;20623;-56
2021/06/26 10:03:50;;;;;;;5.70;5.30;;;25.10;58.10;;;;;;5040210;28;20694;-58
2021/06/26 10:06:18;;;;;;;6.30;5.70;;;25.10;57.50;;;;;;5072206;28;20652;-58
2021/06/26 10:08:46;;;;;;;5.63;5.00;;;25.10;56.10;;;;;;5072284;28;21026;-58
2021/06/26 10:11:13;;;;;;;6.63;4.57;;;25.10;57.00;;;;;;5052121;28;20633;-56
2021/06/26 10:13:42;;;;;;;4.70;4.30;;;25.00;56.80;;;;;;5054087;28;20646;-55
2021/06/26 10:16:10;;;;;;;5.93;5.17;;;25.00;55.90;;;;;;5055570;28;20633;-56
2021/06/26 10:18:39;;;;;;;5.83;5.33;;;25.00;57.60;;;;;;5049300;28;21030;-56
2021/06/26 10:21:06;;;;;;;5.90;5.40;;;25.10;59.10;;;;;;5038876;28;20656;-56
2021/06/26 10:23:33;;;;;;;6.43;5.93;;;25.00;58.90;;;;;;5051188;28;20744;-58
2021/06/26 10:26:01;;;;;;;7.43;5.10;;;25.00;58.40;;;;;;5038641;28;20631;-56
2021/06/26 10:28:28;;;;;;;6.90;5.50;;;24.90;57.80;;;;;;5049314;28;21252;-56
2021/06/26 10:31:00;;;;;;;5.37;4.87;;;24.90;58.40;;;;;;5043076;28;20654;-57
2021/06/26 10:33:29;;;;;;;6.63;6.03;;;24.90;59.40;;;;;;5051974;28;20650;-55
2021/06/26 10:35:56;;;;;;;5.93;5.47;;;24.80;58.00;;;;;;5051193;28;20660;-55
2021/06/26 10:38:24;;;;;;;6.13;5.67;;;24.80;59.70;;;;;;5037380;28;20695;-57
2021/06/26 10:40:52;;;;;;;7.50;6.80;;;24.80;59.70;;;;;;5048205;28;21206;-58
2021/06/26 10:43:21;;;;;;;5.97;5.57;;;24.70;59.30;;;;;;5051740;28;20684;-56
2021/06/26 10:45:49;;;;;;;7.10;6.40;;;24.70;58.70;;;;;;5042434;28;20708;-56
2021/06/26 10:48:19;;;;;;;7.10;6.50;;;24.70;58.30;;;;;;5051281;28;20689;-57
2021/06/26 10:50:47;;;;;;;6.97;6.47;;;24.80;58.70;;;;;;5050732;28;20626;-56
2021/06/26 10:53:25;;;;;;;6.87;6.37;;;24.70;58.30;;;;;;5051949;28;20741;-57
2021/06/26 10:56:04;;;;;;;5.93;5.27;;;24.80;58.40;;;;;;5019024;28;20699;-56
2021/06/26 10:58:33;;;;;;;6.40;5.90;;;24.80;58.90;;;;;;5051149;28;20689;-56
2021/06/26 11:01:10;;;;;;;6.13;5.70;;;24.90;59.10;;;;;;5051101;28;20669;-55
2021/06/26 11:03:39;;;;;;;5.87;5.47;;;24.80;57.80;;;;;;5050582;28;20676;-57
2021/06/26 11:06:14;;;;;;;6.50;5.90;;;24.70;58.70;;;;;;5051081;28;20634;-56
2021/06/26 11:08:41;;;;;;;6.60;6.00;;;24.70;58.70;;;;;;5030674;28;21504;-55
2021/06/26 11:11:09;;;;;;;8.03;7.03;;;24.70;58.20;;;;;;5049671;28;20665;-56
2021/06/26 11:13:36;;;;;;;6.50;5.90;;;24.70;58.60;;;;;;5050324;28;20733;-55
2021/06/26 11:16:07;;;;;;;6.50;6.10;;;24.60;58.10;;;;;;5022015;28;20622;-57
2021/06/26 11:18:35;;;;;;;7.57;7.00;;;24.60;58.30;;;;;;5030785;28;20686;-56
2021/06/26 11:21:04;;;;;;;6.13;5.70;;;24.60;57.60;;;;;;5040408;28;20692;-55
2021/06/26 11:23:31;;;;;;;7.10;6.37;;;24.60;57.80;;;;;;5050505;28;20669;-56
2021/06/26 11:26:02;;;;;;;6.70;6.20;;;24.60;57.80;;;;;;5051000;28;20678;-57
2021/06/26 11:28:29;;;;;;;6.57;6.07;;;24.70;58.70;;;;;;5050762;28;20685;-56
2021/06/26 11:31:00;;;;;;;6.40;5.80;;;24.70;58.60;;;;;;5050827;28;21218;-57
2021/06/26 11:33:30;;;;;;;7.33;6.73;;;24.80;59.40;;;;;;5051414;28;20630;-57
2021/06/26 11:35:58;;;;;;;10.60;6.20;;;24.80;58.40;;;;;;5050886;28;20626;-57
2021/06/26 11:38:26;;;;;;;6.50;6.00;;;24.90;58.30;;;;;;5050790;28;20653;-56
2021/06/26 11:41:02;;;;;;;8.10;6.70;;;24.90;57.80;;;;;;5050801;28;20634;-57
2021/06/26 11:43:29;;;;;;;7.50;6.90;;;24.90;56.80;;;;;;5050799;28;20665;-57
2021/06/26 11:45:57;;;;;;;7.90;7.20;;;25.00;56.90;;;;;;5032758;28;20658;-58
2021/06/26 11:48:24;;;;;;;6.83;6.33;;;25.00;56.70;;;;;;5050684;28;20705;-57
2021/06/26 11:50:52;;;;;;;8.90;5.90;;;24.90;57.40;;;;;;5050536;28;20619;-57
2021/06/26 11:53:21;;;;;;;5.23;4.83;;;25.10;58.90;;;;;;5050218;28;20654;-56
2021/06/26 11:55:56;;;;;;;7.00;6.50;;;25.20;59.30;;;;;;5050274;28;20630;-55
2021/06/26 11:58:23;;;;;;;7.43;6.83;;;25.20;59.30;;;;;;5029178;28;20662;-56
2021/06/26 12:00:51;;;;;;;6.33;5.73;;;25.20;59.50;;;;;;5031132;28;20631;-57
2021/06/26 12:03:19;;;;;;;8.00;7.30;;;25.20;58.80;;;;;;5035361;28;20622;-57
2021/06/26 12:05:46;;;;;;;6.87;6.27;;;25.20;57.70;;;;;;5050514;28;20696;-57
2021/06/26 12:08:17;;;;;;;8.87;7.97;;;25.20;58.10;;;;;;5050460;28;20884;-57
2021/06/26 12:10:46;;;;;;;7.03;6.60;;;25.20;58.40;;;;;;5035995;28;20643;-57
2021/06/26 12:13:16;;;;;;;7.93;6.80;;;25.30;58.20;;;;;;5062177;28;20618;-58
2021/06/26 12:15:44;;;;;;;7.97;7.37;;;25.30;58.70;;;;;;5051001;28;20649;-57
2021/06/26 12:18:11;;;;;;;7.40;6.67;;;25.40;58.60;;;;;;5050391;28;20700;-57
2021/06/26 12:20:39;;;;;;;7.07;6.37;;;25.40;55.30;;;;;;5050713;28;20665;-57
2021/06/26 12:23:07;;;;;;;6.90;6.30;;;25.50;57.50;;;;;;5035629;28;20986;-58
2021/06/26 12:25:38;;;;;;;6.07;5.57;;;25.40;59.10;;;;;;5053985;28;20699;-58
2021/06/26 12:28:08;;;;;;;6.60;6.00;;;25.40;56.60;;;;;;5054281;28;21056;-56
2021/06/26 12:30:37;;;;;;;7.40;6.80;;;25.40;58.90;;;;;;5053613;28;20657;-55
2021/06/26 12:33:06;;;;;;;7.80;7.27;;;25.50;58.90;;;;;;5053605;28;20662;-57
2021/06/26 12:35:33;;;;;;;6.60;6.10;;;25.50;55.50;;;;;;5053810;28;20653;-56
2021/06/26 12:38:00;;;;;;;8.63;6.53;;;25.50;54.60;;;;;;5053869;28;20709;-58